Terminal Aerodrome Forecast
Issued by NWS Nashville, TN

Current Version | Previous Version | Text Only | Print | Product List | Glossary On
Versions: 1 2 3 4 5 6 7 8 9 10 11 12 13 14 15 16 17 18 19 20 21 22 23 24 25 26 27 28 29 30 31 32 33 34 35 36
000
FTUS44 KOHX 301139
TAFCSV
TAF
KCSV 301139Z 3012/3112 18010KT P6SM SCT070 BKN150
     FM301500 19015G26KT P6SM BKN050
     FM310200 22010KT 6SM -TSRA SCT020 BKN035CB
      TEMPO 3102/3106 2SM TSRA BR OVC020CB
     FM310900 25006KT P6SM OVC008=

USA.gov is the U.S. government's official web portal to all federal, state and local government web resources and services.